createdAt,value
2023-01-13T00:01:29.566Z,12.77
2023-01-13T00:04:55.190Z,14.23
2023-01-13T00:07:23.311Z,10.80
2023-01-13T00:09:51.463Z,10.57
2023-01-13T00:12:19.477Z,11.85
2023-01-13T00:14:47.860Z,12.25
2023-01-13T00:17:16.018Z,11.63
2023-01-13T00:19:45.153Z,13.10
2023-01-13T00:22:13.489Z,12.95
2023-01-13T00:24:41.619Z,12.98
2023-01-13T00:27:09.753Z,14.60
2023-01-13T00:29:38.025Z,11.40
2023-01-13T00:32:06.027Z,11.35
2023-01-13T00:34:34.227Z,14.82
2023-01-13T00:37:02.300Z,23.52
2023-01-13T00:39:30.416Z,20.15
2023-01-13T00:42:17.245Z,20.13
2023-01-13T00:44:45.690Z,18.17
2023-01-13T00:47:13.910Z,19.90
2023-01-13T00:49:42.292Z,16.20
2023-01-13T00:52:10.103Z,14.73
2023-01-13T00:54:38.383Z,13.37
2023-01-13T00:57:06.413Z,12.15
2023-01-13T00:59:34.728Z,11.20
2023-01-13T01:02:02.702Z,13.63
2023-01-13T01:04:31.835Z,12.60
2023-01-13T01:06:59.844Z,15.13
2023-01-13T01:09:33.154Z,12.02
2023-01-13T01:12:01.515Z,14.52
2023-01-13T01:14:29.785Z,14.35
2023-01-13T01:16:57.629Z,20.13
2023-01-13T01:19:25.875Z,19.20
2023-01-13T01:21:56.029Z,21.52
2023-01-13T01:24:24.296Z,22.00
2023-01-13T01:26:52.307Z,23.60
2023-01-13T01:29:20.686Z,21.40
2023-01-13T01:31:48.642Z,24.70
2023-01-13T01:34:16.921Z,22.08
2023-01-13T01:36:44.890Z,24.10
2023-01-13T01:39:13.067Z,20.55
2023-01-13T01:42:01.394Z,20.02
2023-01-13T01:45:02.405Z,23.47
2023-01-13T01:47:31.712Z,22.15
2023-01-13T01:50:03.171Z,23.10
2023-01-13T01:52:37.995Z,19.83
2023-01-13T01:55:29.340Z,21.00
2023-01-13T01:58:16.732Z,20.87
2023-01-13T02:00:45.130Z,16.27
2023-01-13T02:03:13.568Z,15.23
2023-01-13T02:05:42.137Z,15.85
2023-01-13T02:08:13.351Z,15.43
2023-01-13T02:10:45.394Z,15.00
2023-01-13T02:13:14.282Z,13.40
2023-01-13T02:15:58.929Z,17.98
2023-01-13T02:19:16.176Z,17.42
2023-01-13T02:33:18.712Z,22.02
2023-01-13T02:40:23.171Z,16.27
2023-01-13T02:43:48.384Z,15.23
2023-01-13T02:46:24.395Z,18.15
2023-01-13T02:48:55.018Z,18.50
2023-01-13T02:51:27.415Z,19.92
2023-01-13T02:54:05.211Z,20.02
2023-01-13T02:56:37.769Z,22.10
2023-01-13T02:59:07.076Z,21.02
2023-01-13T03:01:34.923Z,18.15
2023-01-13T03:04:35.646Z,23.98
2023-01-13T03:07:14.371Z,23.75
2023-01-13T03:09:51.121Z,25.10
2023-01-13T03:12:48.098Z,25.52
2023-01-13T03:15:40.896Z,26.80
2023-01-13T03:18:19.866Z,23.58
2023-01-13T03:21:15.832Z,26.98
2023-01-13T03:23:57.939Z,18.80
2023-01-13T03:27:11.443Z,25.02
2023-01-13T03:29:49.777Z,20.02
2023-01-13T03:32:37.739Z,16.67
2023-01-13T03:35:17.374Z,17.98
2023-01-13T03:37:50.395Z,21.53
2023-01-13T03:40:24.350Z,22.50
2023-01-13T03:43:20.084Z,21.65
2023-01-13T03:45:54.066Z,21.83
2023-01-13T03:48:26.710Z,27.27
2023-01-13T03:50:57.956Z,28.83
2023-01-13T03:53:32.998Z,29.40
2023-01-13T03:56:13.743Z,25.95
2023-01-13T03:58:48.744Z,23.45
2023-01-13T04:01:45.198Z,28.88
2023-01-13T04:04:21.471Z,24.40
2023-01-13T04:06:55.294Z,24.00
2023-01-13T04:09:41.935Z,20.63
2023-01-13T04:12:26.959Z,18.27
2023-01-13T04:14:56.550Z,21.73
2023-01-13T04:17:25.084Z,25.60
2023-01-13T04:19:53.234Z,20.80
2023-01-13T04:22:20.985Z,29.27
2023-01-13T04:24:49.199Z,26.95
2023-01-13T04:27:17.020Z,32.80
2023-01-13T04:29:45.175Z,28.70
2023-01-13T04:32:13.127Z,25.15
2023-01-13T04:34:41.344Z,24.48
2023-01-13T04:37:09.041Z,25.30
2023-01-13T04:39:37.557Z,29.63
2023-01-13T04:42:06.392Z,28.03
2023-01-13T04:44:36.001Z,27.88
2023-01-13T04:47:04.891Z,31.42
2023-01-13T04:49:33.698Z,25.55
2023-01-13T04:52:04.205Z,25.85
2023-01-13T04:54:32.239Z,24.20
2023-01-13T04:57:00.108Z,29.67
2023-01-13T04:59:28.181Z,28.00
2023-01-13T05:01:56.337Z,29.58
2023-01-13T05:04:24.476Z,32.15
2023-01-13T05:06:52.373Z,53.87
2023-01-13T05:09:20.530Z,51.05
2023-01-13T05:12:07.126Z,42.05
2023-01-13T05:14:54.119Z,30.70
2023-01-13T05:17:24.499Z,35.13
2023-01-13T05:19:52.587Z,28.77
2023-01-13T05:22:38.824Z,27.52
2023-01-13T05:25:28.614Z,32.20
2023-01-13T05:28:00.340Z,30.75
2023-01-13T05:30:33.610Z,28.58
2023-01-13T05:33:01.711Z,29.20
2023-01-13T05:35:30.218Z,30.50
2023-01-13T05:37:58.411Z,34.90
2023-01-13T05:40:45.073Z,42.28
2023-01-13T05:43:25.915Z,44.75
2023-01-13T05:45:59.705Z,37.47
2023-01-13T05:48:39.063Z,38.08
2023-01-13T05:51:10.261Z,31.52
2023-01-13T05:53:43.982Z,28.55
2023-01-13T05:56:12.481Z,31.58
2023-01-13T05:58:40.713Z,33.37
2023-01-13T06:01:14.075Z,30.95
2023-01-13T06:03:42.129Z,28.52
2023-01-13T06:06:10.513Z,26.35
2023-01-13T06:08:39.811Z,27.77
2023-01-13T06:11:08.575Z,26.67
2023-01-13T06:13:36.860Z,30.13
2023-01-13T06:16:05.565Z,31.15
2023-01-13T06:18:33.374Z,88.40
2023-01-13T06:21:01.404Z,74.63
2023-01-13T06:23:29.944Z,87.00
2023-01-13T06:26:15.966Z,46.67
2023-01-13T06:28:43.771Z,40.35
2023-01-13T06:31:12.594Z,43.30
2023-01-13T06:33:45.747Z,29.75
2023-01-13T06:36:19.289Z,32.53
2023-01-13T06:38:50.142Z,31.98
2023-01-13T06:41:39.843Z,28.80
2023-01-13T06:44:08.023Z,25.55
2023-01-13T06:46:36.699Z,30.50
2023-01-13T06:49:05.849Z,28.53
2023-01-13T06:51:34.386Z,34.97
2023-01-13T06:54:02.668Z,37.92
2023-01-13T06:56:31.183Z,55.97
2023-01-13T06:58:59.403Z,41.55
2023-01-13T07:01:28.100Z,41.40
2023-01-13T07:03:56.352Z,42.25
2023-01-13T07:06:25.502Z,40.85
2023-01-13T07:08:53.647Z,44.53
2023-01-13T07:11:22.120Z,39.97
2023-01-13T07:14:09.337Z,55.07
2023-01-13T07:16:37.973Z,49.65
2023-01-13T07:19:05.979Z,41.88
2023-01-13T07:21:34.491Z,34.50
2023-01-13T07:24:02.591Z,31.95
2023-01-13T07:26:31.019Z,35.03
2023-01-13T07:28:59.070Z,32.78
2023-01-13T07:31:28.027Z,35.50
2023-01-13T07:33:56.017Z,34.70
2023-01-13T07:36:24.404Z,32.97
2023-01-13T07:38:54.689Z,39.23
2023-01-13T07:41:44.408Z,38.67
2023-01-13T07:44:12.752Z,44.70
2023-01-13T07:46:47.740Z,38.88
2023-01-13T07:49:18.561Z,39.17
2023-01-13T07:52:15.558Z,39.20
2023-01-13T07:54:43.698Z,36.75
2023-01-13T07:57:16.542Z,36.33
2023-01-13T07:59:50.259Z,35.92
2023-01-13T08:02:22.498Z,43.88
2023-01-13T08:04:50.913Z,30.27
2023-01-13T08:07:19.463Z,41.70
2023-01-13T08:09:48.011Z,35.67
2023-01-13T08:12:35.146Z,34.92
2023-01-13T08:15:05.226Z,25.65
2023-01-13T08:17:35.908Z,27.00
2023-01-13T08:20:09.119Z,36.08
2023-01-13T08:22:42.740Z,38.45
2023-01-13T08:25:10.995Z,40.63
2023-01-13T08:27:42.048Z,35.90
2023-01-13T08:30:12.182Z,53.67
2023-01-13T08:32:40.601Z,34.33
2023-01-13T08:35:09.154Z,33.05
2023-01-13T08:37:37.947Z,29.60
2023-01-13T08:40:11.024Z,27.50
2023-01-13T08:42:48.430Z,32.20
2023-01-13T08:45:17.484Z,38.00
2023-01-13T08:47:46.336Z,32.92
2023-01-13T08:50:17.895Z,41.08
2023-01-13T08:52:51.798Z,40.58
2023-01-13T08:55:35.475Z,45.97
2023-01-13T08:58:37.577Z,38.90
2023-01-13T09:01:08.850Z,47.60
2023-01-13T09:03:39.975Z,49.17
2023-01-13T09:06:15.572Z,55.50
2023-01-13T09:08:54.505Z,40.10
2023-01-13T09:11:52.475Z,35.47
2023-01-13T09:14:25.179Z,36.10
2023-01-13T09:16:53.618Z,33.80
2023-01-13T09:19:22.428Z,34.03
2023-01-13T09:21:58.022Z,38.00
2023-01-13T09:24:27.675Z,40.78
2023-01-13T09:27:22.066Z,45.67
2023-01-13T09:32:36.770Z,42.70
2023-01-13T09:35:19.584Z,38.07
2023-01-13T09:37:54.050Z,41.63
2023-01-13T09:40:23.415Z,37.55
2023-01-13T09:43:32.166Z,37.88
2023-01-13T09:46:34.310Z,41.75
2023-01-13T09:49:05.746Z,41.07
2023-01-13T09:52:06.628Z,41.63
2023-01-13T09:54:46.735Z,45.15
2023-01-13T10:00:49.223Z,41.17
2023-01-13T10:04:17.405Z,42.97
2023-01-13T10:07:10.927Z,34.85
2023-01-13T10:13:19.699Z,37.47
2023-01-13T10:16:20.779Z,40.95
2023-01-13T10:18:56.144Z,34.53
2023-01-13T10:22:09.328Z,119.82
2023-01-13T10:25:22.332Z,48.40
2023-01-13T10:28:04.780Z,48.70
2023-01-13T10:30:43.351Z,41.35
2023-01-13T10:33:30.833Z,49.53
2023-01-13T10:36:12.764Z,66.75
2023-01-13T10:38:46.816Z,44.38
2023-01-13T10:44:55.945Z,46.40
2023-01-13T10:47:39.539Z,43.60
2023-01-13T10:50:10.743Z,47.42
2023-01-13T10:52:55.468Z,56.17
2023-01-13T10:55:39.082Z,52.90
2023-01-13T10:58:22.441Z,54.80
2023-01-13T11:01:05.993Z,50.33
2023-01-13T11:03:46.727Z,55.78
2023-01-13T11:06:36.039Z,49.95
2023-01-13T11:09:20.717Z,60.40
2023-01-13T11:11:56.532Z,67.18
2023-01-13T11:14:44.561Z,94.07
2023-01-13T11:17:36.554Z,52.20
2023-01-13T11:20:13.696Z,42.03
2023-01-13T11:22:53.568Z,59.03
2023-01-13T11:25:35.759Z,62.65
2023-01-13T11:28:17.499Z,74.60
2023-01-13T11:31:14.336Z,58.53
2023-01-13T11:34:01.580Z,64.97
2023-01-13T11:36:46.277Z,43.97
2023-01-13T11:39:29.733Z,35.22
2023-01-13T11:42:25.001Z,27.17
2023-01-13T11:45:04.561Z,24.92
2023-01-13T11:47:33.816Z,31.70
2023-01-13T11:50:03.217Z,27.55
2023-01-13T11:52:31.443Z,29.33
2023-01-13T11:55:09.744Z,31.70
2023-01-13T11:58:05.480Z,76.50
2023-01-13T12:00:56.850Z,52.75
2023-01-13T12:03:38.975Z,30.15
2023-01-13T12:06:15.210Z,27.33
2023-01-13T12:09:05.755Z,50.87
2023-01-13T12:12:21.729Z,43.30
2023-01-13T12:15:29.053Z,28.40
2023-01-13T12:21:37.188Z,87.05
2023-01-13T12:24:30.677Z,54.33
2023-01-13T12:27:12.609Z,35.90
2023-01-13T12:29:41.088Z,33.03
2023-01-13T12:32:24.075Z,28.23
2023-01-13T12:36:09.480Z,28.52
2023-01-13T13:03:28.239Z,28.70
2023-01-13T13:06:08.867Z,29.27
2023-01-13T13:13:14.477Z,25.83
2023-01-13T13:15:43.523Z,24.63
2023-01-13T13:18:32.444Z,23.63
2023-01-13T13:21:09.595Z,26.55
2023-01-13T13:23:46.947Z,25.80
2023-01-13T13:26:38.371Z,26.08
2023-01-13T13:29:07.487Z,26.58
2023-01-13T13:32:14.719Z,23.40
2023-01-13T13:34:46.039Z,26.13
2023-01-13T13:37:29.974Z,22.93
2023-01-13T13:40:24.543Z,25.13
2023-01-13T13:43:16.284Z,25.10
2023-01-13T13:46:11.808Z,25.08
2023-01-13T13:48:40.395Z,24.08
2023-01-13T13:51:29.761Z,25.07
2023-01-13T13:53:59.871Z,22.48
2023-01-13T13:56:29.775Z,26.17
2023-01-13T13:58:58.425Z,24.13
2023-01-13T14:01:33.614Z,26.50
2023-01-13T14:04:20.269Z,28.23
2023-01-13T14:07:05.412Z,23.00
2023-01-13T14:09:46.787Z,22.85
2023-01-13T14:12:23.498Z,26.60
2023-01-13T14:14:52.297Z,32.85
2023-01-13T14:17:26.535Z,28.63
2023-01-13T14:20:15.019Z,29.35
2023-01-13T14:22:51.483Z,31.27
2023-01-13T14:25:46.301Z,32.53
2023-01-13T14:28:14.286Z,31.23
2023-01-13T14:31:01.966Z,30.73
2023-01-13T14:33:43.453Z,32.58
2023-01-13T14:36:33.922Z,30.17
2023-01-13T14:39:04.889Z,31.23
2023-01-13T14:41:43.725Z,35.30
2023-01-13T14:44:51.524Z,41.50
2023-01-13T14:47:25.331Z,41.08
2023-01-13T14:50:11.734Z,43.72
2023-01-13T14:52:51.691Z,43.72
2023-01-13T14:55:32.431Z,41.45
2023-01-13T14:58:22.619Z,45.77
2023-01-13T15:00:52.383Z,42.35
2023-01-13T15:03:21.627Z,38.30
2023-01-13T15:05:52.578Z,32.22
2023-01-13T15:08:30.070Z,28.77
2023-01-13T15:11:08.786Z,28.60
2023-01-13T15:13:53.080Z,29.52
2023-01-13T15:16:25.554Z,30.52
2023-01-13T15:18:59.031Z,30.33
2023-01-13T15:21:27.248Z,29.00
2023-01-13T15:23:55.401Z,32.43
2023-01-13T15:26:29.811Z,29.77
2023-01-13T15:29:01.199Z,37.25
2023-01-13T15:31:29.681Z,30.40
2023-01-13T15:33:59.296Z,28.73
2023-01-13T15:36:30.627Z,31.47
2023-01-13T15:39:01.434Z,32.33
2023-01-13T15:41:48.336Z,33.05
2023-01-13T15:44:36.040Z,28.42
2023-01-13T15:47:06.783Z,29.85
2023-01-13T15:49:41.619Z,27.40
2023-01-13T15:52:21.918Z,30.08
2023-01-13T15:54:51.530Z,30.55
2023-01-13T15:57:30.853Z,27.65
2023-01-13T16:00:03.129Z,81.97
2023-01-13T16:02:34.968Z,201.13
2023-01-13T16:05:03.537Z,87.07
2023-01-13T16:07:31.768Z,32.15
2023-01-13T16:16:19.214Z,34.97
2023-01-13T16:18:47.239Z,72.88
2023-01-13T16:21:16.059Z,114.55
2023-01-13T16:23:44.111Z,67.60
2023-01-13T16:26:22.222Z,53.08
2023-01-13T16:28:52.673Z,40.93
2023-01-13T16:31:32.418Z,32.15
2023-01-13T16:34:02.545Z,35.20
2023-01-13T16:37:03.115Z,31.02
2023-01-13T16:39:31.470Z,30.30
2023-01-13T16:41:59.893Z,34.43
2023-01-13T16:44:27.825Z,43.42
2023-01-13T16:46:59.242Z,31.55
2023-01-13T16:49:27.234Z,31.38
2023-01-13T16:51:55.388Z,29.73
2023-01-13T16:54:23.394Z,25.17
2023-01-13T16:56:51.913Z,28.75
2023-01-13T16:59:20.045Z,30.20
2023-01-13T17:01:48.585Z,28.27
2023-01-13T17:04:19.619Z,29.23
2023-01-13T17:07:11.064Z,29.07
2023-01-13T17:09:39.248Z,31.35
2023-01-13T17:12:07.530Z,26.27
2023-01-13T17:14:35.703Z,30.25
2023-01-13T17:17:04.334Z,26.20
2023-01-13T17:19:32.400Z,26.10
2023-01-13T17:22:00.744Z,24.15
2023-01-13T17:24:32.107Z,26.98
2023-01-13T17:27:00.640Z,30.40
2023-01-13T17:29:28.915Z,23.50
2023-01-13T17:31:57.596Z,29.43
2023-01-13T17:34:25.432Z,29.40
2023-01-13T17:36:54.228Z,25.27
2023-01-13T17:39:24.975Z,34.05
2023-01-13T17:41:56.439Z,28.08
2023-01-13T17:44:28.302Z,29.77
2023-01-13T17:47:04.202Z,29.75
2023-01-13T17:49:42.593Z,35.40
2023-01-13T17:52:40.833Z,36.45
2023-01-13T17:55:11.167Z,36.08
2023-01-13T17:57:39.006Z,40.77
2023-01-13T18:00:08.546Z,49.00
2023-01-13T18:02:43.015Z,47.63
2023-01-13T18:05:13.074Z,37.83
2023-01-13T18:07:40.927Z,33.95
2023-01-13T18:10:09.942Z,48.60
2023-01-13T18:12:38.052Z,48.70
2023-01-13T18:15:07.580Z,32.70
2023-01-13T18:20:58.782Z,29.42
2023-01-13T18:23:56.796Z,34.50
2023-01-13T18:26:47.060Z,32.90
2023-01-13T18:29:22.354Z,35.60
2023-01-13T18:31:55.612Z,31.65
2023-01-13T18:34:23.490Z,31.23
2023-01-13T18:36:51.770Z,35.90
2023-01-13T18:39:20.215Z,31.17
2023-01-13T18:42:06.905Z,31.05
2023-01-13T18:44:36.983Z,28.25
2023-01-13T18:47:09.156Z,29.05
2023-01-13T18:49:37.296Z,29.27
2023-01-13T18:52:05.973Z,26.80
2023-01-13T18:54:34.245Z,28.73
2023-01-13T18:57:03.269Z,33.58
2023-01-13T18:59:33.606Z,36.80
2023-01-13T19:02:09.977Z,34.45
2023-01-13T19:04:38.179Z,45.37
2023-01-13T19:07:06.626Z,40.95
2023-01-13T19:09:34.415Z,38.97
2023-01-13T19:12:08.911Z,30.00
2023-01-13T19:14:40.172Z,43.35
2023-01-13T19:17:13.577Z,35.67
2023-01-13T19:19:44.984Z,37.20
2023-01-13T19:22:19.167Z,38.25
2023-01-13T19:24:50.807Z,34.22
2023-01-13T19:27:21.086Z,36.85
2023-01-13T19:29:52.510Z,34.90
2023-01-13T19:32:22.505Z,37.42
2023-01-13T19:34:51.571Z,41.17
2023-01-13T19:37:20.063Z,34.80
2023-01-13T19:39:48.189Z,41.83
2023-01-13T19:42:34.698Z,39.37
2023-01-13T19:45:21.028Z,53.90
2023-01-13T19:47:50.589Z,64.60
2023-01-13T19:50:18.347Z,69.60
2023-01-13T19:52:47.199Z,65.78
2023-01-13T19:55:20.147Z,65.30
2023-01-13T19:57:48.432Z,71.30
2023-01-13T20:00:21.284Z,61.92
2023-01-13T20:02:52.417Z,49.40
2023-01-13T20:05:24.801Z,44.53
2023-01-13T20:07:53.608Z,41.73
2023-01-13T20:10:22.811Z,46.35
2023-01-13T20:12:51.400Z,45.38
2023-01-13T20:15:19.177Z,48.25
2023-01-13T20:17:48.080Z,44.03
2023-01-13T20:20:17.125Z,47.57
2023-01-13T20:22:45.573Z,48.63
2023-01-13T20:25:17.664Z,53.05
2023-01-13T20:27:47.146Z,56.88
2023-01-13T20:30:15.792Z,51.20
2023-01-13T20:32:44.613Z,43.88
2023-01-13T20:35:12.438Z,46.78
2023-01-13T20:37:42.858Z,44.70
2023-01-13T20:40:16.330Z,45.78
2023-01-13T20:42:48.069Z,49.85
2023-01-13T20:45:21.212Z,55.17
2023-01-13T20:47:50.156Z,49.38
2023-01-13T20:50:18.481Z,60.92
2023-01-13T20:52:47.602Z,51.78
2023-01-13T20:55:15.812Z,53.72
2023-01-13T20:57:48.925Z,63.92
2023-01-13T21:00:17.408Z,61.70
2023-01-13T21:02:45.897Z,59.47
2023-01-13T21:05:14.738Z,60.85
2023-01-13T21:07:43.353Z,58.42
2023-01-13T21:10:11.979Z,60.20
2023-01-13T21:12:59.127Z,58.50
2023-01-13T21:15:27.966Z,52.08
2023-01-13T21:18:14.521Z,55.15
2023-01-13T21:20:42.411Z,57.90
2023-01-13T21:23:11.259Z,53.25
2023-01-13T21:25:40.582Z,49.47
2023-01-13T21:28:12.343Z,38.45
2023-01-13T21:30:40.783Z,47.95
2023-01-13T21:33:13.519Z,43.45
2023-01-13T21:35:41.718Z,51.83
2023-01-13T21:38:11.575Z,55.28
2023-01-13T21:40:39.720Z,46.38
2023-01-13T21:43:30.101Z,53.75
2023-01-13T21:46:16.522Z,52.45
2023-01-13T21:48:45.020Z,51.47
2023-01-13T21:51:12.790Z,55.97
2023-01-13T21:53:41.071Z,51.10
2023-01-13T21:56:08.672Z,56.90
2023-01-13T21:58:39.204Z,53.75
2023-01-13T22:01:07.188Z,55.72
2023-01-13T22:03:55.439Z,62.30
2023-01-13T22:06:24.739Z,55.85
2023-01-13T22:08:56.182Z,58.67
2023-01-13T22:11:24.097Z,58.75
2023-01-13T22:14:07.913Z,57.67
2023-01-13T22:16:42.590Z,59.33
2023-01-13T22:19:11.333Z,49.40
2023-01-13T22:21:39.659Z,43.08
2023-01-13T22:24:08.336Z,45.88
2023-01-13T22:26:36.365Z,46.47
2023-01-13T22:29:04.660Z,47.42
2023-01-13T22:31:32.833Z,52.08
2023-01-13T22:34:00.970Z,54.42
2023-01-13T22:36:28.782Z,57.47
2023-01-13T22:38:57.306Z,48.92
2023-01-13T22:41:25.083Z,47.35
2023-01-13T22:43:53.615Z,51.67
2023-01-13T22:46:22.610Z,59.13
2023-01-13T22:48:54.183Z,54.40
2023-01-13T22:51:23.177Z,63.20
2023-01-13T22:53:51.681Z,59.05
2023-01-13T22:56:22.401Z,58.10
2023-01-13T22:58:55.224Z,54.40
2023-01-13T23:01:24.339Z,57.58
2023-01-13T23:03:53.127Z,49.13
2023-01-13T23:06:23.876Z,63.38
2023-01-13T23:08:52.241Z,69.57
2023-01-13T23:11:21.885Z,72.65
2023-01-13T23:13:50.977Z,75.05
2023-01-13T23:16:21.588Z,55.37
2023-01-13T23:18:50.304Z,57.78
2023-01-13T23:21:22.833Z,44.22
2023-01-13T23:23:51.223Z,40.63
2023-01-13T23:26:19.962Z,39.63
2023-01-13T23:28:49.716Z,40.47
2023-01-13T23:31:22.493Z,42.60
2023-01-13T23:33:50.730Z,41.13
2023-01-13T23:36:24.010Z,40.28
2023-01-13T23:38:53.496Z,40.58
2023-01-13T23:41:23.942Z,44.65
2023-01-13T23:43:55.580Z,40.40
2023-01-13T23:46:24.360Z,37.03
2023-01-13T23:48:52.883Z,41.33
2023-01-13T23:51:23.485Z,40.83
2023-01-13T23:53:52.073Z,38.00
2023-01-13T23:56:25.567Z,40.33
2023-01-13T23:58:54.603Z,39.45
